createdAt,value
2023-04-16T00:00:46.556Z,79.33
2023-04-16T00:03:35.267Z,79.35
2023-04-16T00:06:04.483Z,79.22
2023-04-16T00:08:37.484Z,79.38
2023-04-16T00:11:06.363Z,79.19
2023-04-16T00:13:35.856Z,79.40
2023-04-16T00:16:08.335Z,79.44
2023-04-16T00:18:38.547Z,79.49
2023-04-16T00:21:15.234Z,79.35
2023-04-16T00:23:53.145Z,79.55
2023-04-16T00:26:44.438Z,79.77
2023-04-16T00:29:13.552Z,79.72
2023-04-16T00:31:44.704Z,79.61
2023-04-16T00:34:16.313Z,79.46
2023-04-16T00:36:52.616Z,79.69
2023-04-16T00:39:23.744Z,79.90
2023-04-16T00:41:52.651Z,80.03
2023-04-16T00:44:21.426Z,80.20
2023-04-16T00:46:56.769Z,80.26
2023-04-16T00:49:28.267Z,80.37
2023-04-16T00:52:04.284Z,80.50
2023-04-16T00:54:38.899Z,80.65
2023-04-16T00:57:10.359Z,80.81
2023-04-16T00:59:41.906Z,80.89
2023-04-16T01:02:17.388Z,80.98
2023-04-16T01:04:52.185Z,81.05
2023-04-16T01:07:20.970Z,81.16
2023-04-16T01:09:49.756Z,81.30
2023-04-16T01:12:28.587Z,81.48
2023-04-16T01:15:13.363Z,81.74
2023-04-16T01:17:51.418Z,82.06
2023-04-16T01:20:26.291Z,82.34
2023-04-16T01:23:02.565Z,82.46
2023-04-16T01:25:31.821Z,82.54
2023-04-16T01:28:03.100Z,82.51
2023-04-16T01:30:31.995Z,82.61
2023-04-16T01:33:14.715Z,82.75
2023-04-16T01:35:46.461Z,82.87
2023-04-16T01:38:17.500Z,82.77
2023-04-16T01:40:59.655Z,82.83
2023-04-16T01:43:30.854Z,82.81
2023-04-16T01:46:15.840Z,82.82
2023-04-16T01:48:45.277Z,82.79
2023-04-16T01:51:17.187Z,82.84
2023-04-16T01:53:47.089Z,82.91
2023-04-16T01:56:25.182Z,82.95
2023-04-16T01:58:54.019Z,83.05
2023-04-16T02:01:32.934Z,83.20
2023-04-16T02:04:06.751Z,83.13
2023-04-16T02:06:35.322Z,83.16
2023-04-16T02:09:15.682Z,83.18
2023-04-16T02:11:46.959Z,83.15
2023-04-16T02:14:21.331Z,83.23
2023-04-16T02:16:55.624Z,83.25
2023-04-16T02:19:44.517Z,83.37
2023-04-16T02:22:14.933Z,83.53
2023-04-16T02:24:51.508Z,83.59
2023-04-16T02:27:35.047Z,83.72
2023-04-16T02:30:13.245Z,83.52
2023-04-16T02:32:51.628Z,83.60
2023-04-16T02:35:23.411Z,83.50
2023-04-16T02:37:54.457Z,83.58
2023-04-16T02:40:26.932Z,83.59
2023-04-16T02:43:00.648Z,83.65
2023-04-16T02:45:37.767Z,83.76
2023-04-16T02:48:10.192Z,83.90
2023-04-16T02:50:39.099Z,84.02
2023-04-16T02:53:14.018Z,84.04
2023-04-16T02:55:52.743Z,83.96
2023-04-16T02:58:26.677Z,83.91
2023-04-16T03:01:00.739Z,83.93
2023-04-16T03:03:35.053Z,83.90
2023-04-16T03:06:10.426Z,83.92
2023-04-16T03:08:44.848Z,83.89
2023-04-16T03:11:22.227Z,83.95
2023-04-16T03:14:19.033Z,84.11
2023-04-16T03:16:47.992Z,84.24
2023-04-16T03:19:22.810Z,84.30
2023-04-16T03:22:21.901Z,84.35
2023-04-16T03:24:56.727Z,84.39
2023-04-16T03:27:34.640Z,84.42
2023-04-16T03:30:20.930Z,84.45
2023-04-16T03:32:52.330Z,84.42
2023-04-16T03:35:28.440Z,84.64
2023-04-16T03:37:57.353Z,84.86
2023-04-16T03:40:32.053Z,84.99
2023-04-16T03:43:04.359Z,85.10
2023-04-16T03:45:45.308Z,85.08
2023-04-16T03:48:21.825Z,84.91
2023-04-16T03:50:50.504Z,84.67
2023-04-16T03:53:26.213Z,84.54
2023-04-16T03:55:57.776Z,84.53
2023-04-16T03:58:26.766Z,84.40
2023-04-16T04:00:58.722Z,84.40
2023-04-16T04:03:34.196Z,84.45
2023-04-16T04:06:15.890Z,84.47
2023-04-16T04:08:50.183Z,84.56
2023-04-16T04:11:22.150Z,84.64
2023-04-16T04:13:53.699Z,85.02
2023-04-16T04:16:30.011Z,85.25
2023-04-16T04:19:04.669Z,85.16
2023-04-16T04:21:33.573Z,84.83
2023-04-16T04:24:04.921Z,84.80
2023-04-16T04:26:39.443Z,84.86
2023-04-16T04:29:17.046Z,84.87
2023-04-16T04:31:48.554Z,85.01
2023-04-16T04:34:27.943Z,85.43
2023-04-16T04:36:59.992Z,85.50
2023-04-16T04:39:32.673Z,85.67
2023-04-16T04:42:03.453Z,85.78
2023-04-16T04:44:37.732Z,85.39
2023-04-16T04:47:15.059Z,85.09
2023-04-16T04:49:53.113Z,85.05
2023-04-16T04:52:22.316Z,85.10
2023-04-16T04:55:05.956Z,85.13
2023-04-16T04:57:46.616Z,85.20
2023-04-16T05:00:38.664Z,85.34
2023-04-16T05:03:12.531Z,85.22
2023-04-16T05:05:44.031Z,85.37
2023-04-16T05:08:15.989Z,85.10
2023-04-16T05:10:47.381Z,85.16
2023-04-16T05:13:36.292Z,85.24
2023-04-16T05:16:08.265Z,85.33
2023-04-16T05:18:45.691Z,85.37
2023-04-16T05:21:19.768Z,85.41
2023-04-16T05:23:53.770Z,85.57
2023-04-16T05:26:38.491Z,85.79
2023-04-16T05:29:10.912Z,86.06
2023-04-16T05:31:58.751Z,86.25
2023-04-16T05:34:32.953Z,86.42
2023-04-16T05:37:04.217Z,86.62
2023-04-16T05:39:35.970Z,86.75
2023-04-16T05:42:10.688Z,86.77
2023-04-16T05:44:40.393Z,86.77
2023-04-16T05:47:25.836Z,86.76
2023-04-16T05:50:20.357Z,86.80
2023-04-16T05:52:57.047Z,86.79
2023-04-16T05:55:37.023Z,86.78
2023-04-16T05:58:30.232Z,86.79
2023-04-16T06:01:07.844Z,86.92
2023-04-16T06:04:02.343Z,87.19
2023-04-16T06:06:31.742Z,87.42
2023-04-16T06:09:19.373Z,87.66
2023-04-16T06:11:53.293Z,87.72
2023-04-16T06:14:24.633Z,87.84
2023-04-16T06:16:59.558Z,87.90
2023-04-16T06:19:37.468Z,87.95
2023-04-16T06:22:10.242Z,87.92
2023-04-16T06:24:39.575Z,87.88
2023-04-16T06:27:14.784Z,87.84
2023-04-16T06:29:58.619Z,87.77
2023-04-16T06:32:35.264Z,87.66
2023-04-16T06:35:15.186Z,87.58
2023-04-16T06:37:51.208Z,87.60
2023-04-16T06:40:43.538Z,87.64
2023-04-16T06:43:16.414Z,87.62
2023-04-16T06:45:53.822Z,87.51
2023-04-16T06:48:37.749Z,87.68
2023-04-16T06:51:09.638Z,87.46
2023-04-16T06:53:42.662Z,87.18
2023-04-16T06:56:14.880Z,87.16
2023-04-16T06:59:06.502Z,86.88
2023-04-16T07:01:38.787Z,86.80
2023-04-16T07:04:16.738Z,86.52
2023-04-16T07:06:52.522Z,86.47
2023-04-16T07:09:27.254Z,86.54
2023-04-16T07:12:09.523Z,86.54
2023-04-16T07:14:45.056Z,86.55
2023-04-16T07:17:20.235Z,86.54
2023-04-16T07:19:59.485Z,86.79
2023-04-16T07:22:36.664Z,86.77
2023-04-16T07:25:15.173Z,86.69
2023-04-16T07:27:52.684Z,86.69
2023-04-16T07:30:24.055Z,86.62
2023-04-16T07:32:56.790Z,86.51
2023-04-16T07:35:31.636Z,86.26
2023-04-16T07:38:03.209Z,86.01
2023-04-16T07:40:52.453Z,85.82
2023-04-16T07:43:21.654Z,85.85
2023-04-16T07:45:53.600Z,85.90
2023-04-16T07:48:28.773Z,85.65
2023-04-16T07:50:58.677Z,85.53
2023-04-16T07:53:28.051Z,85.28
2023-04-16T07:56:00.559Z,85.16
2023-04-16T07:58:29.533Z,85.04
2023-04-16T08:01:01.834Z,85.04
2023-04-16T08:03:32.270Z,84.90
2023-04-16T08:06:01.574Z,84.82
2023-04-16T08:08:31.059Z,84.60
2023-04-16T08:11:04.126Z,84.32
2023-04-16T08:13:33.902Z,84.24
2023-04-16T08:16:06.762Z,84.18
2023-04-16T08:18:35.924Z,84.06
2023-04-16T08:21:05.019Z,83.63
2023-04-16T08:23:37.092Z,83.61
2023-04-16T08:26:06.587Z,83.57
2023-04-16T08:28:36.098Z,83.41
2023-04-16T08:31:11.968Z,82.97
2023-04-16T08:33:41.609Z,82.51
2023-04-16T08:36:11.098Z,82.50
2023-04-16T08:38:40.733Z,82.39
2023-04-16T08:41:13.448Z,82.52
2023-04-16T08:43:49.204Z,82.53
2023-04-16T08:46:23.361Z,82.64
2023-04-16T08:48:56.543Z,82.35
2023-04-16T08:51:31.707Z,82.36
2023-04-16T08:54:05.001Z,82.40
2023-04-16T08:56:43.080Z,82.43
2023-04-16T08:59:12.910Z,82.26
2023-04-16T09:01:42.294Z,82.09
2023-04-16T09:04:11.753Z,81.86
2023-04-16T09:06:50.965Z,81.61
2023-04-16T09:09:22.167Z,81.56
2023-04-16T09:11:55.136Z,81.42
2023-04-16T09:14:24.276Z,81.05
2023-04-16T09:16:55.994Z,80.49
2023-04-16T09:19:27.587Z,79.85
2023-04-16T09:21:57.037Z,79.38
2023-04-16T09:24:47.346Z,79.25
2023-04-16T09:27:17.482Z,78.59
2023-04-16T09:29:52.319Z,78.23
2023-04-16T09:32:30.341Z,78.02
2023-04-16T09:35:01.617Z,77.37
2023-04-16T09:37:31.978Z,76.71
2023-04-16T09:40:04.841Z,76.52
2023-04-16T09:42:37.599Z,75.76
2023-04-16T09:45:09.005Z,75.10
2023-04-16T09:47:43.977Z,74.97
2023-04-16T09:50:18.609Z,74.33
2023-04-16T09:52:53.785Z,73.89
2023-04-16T09:55:28.119Z,74.18
2023-04-16T09:58:03.044Z,73.26
2023-04-16T10:00:31.945Z,72.61
2023-04-16T10:03:07.803Z,72.40
2023-04-16T10:05:38.836Z,72.54
2023-04-16T10:08:17.643Z,71.73
2023-04-16T10:10:46.727Z,70.93
2023-04-16T10:13:17.879Z,69.29
2023-04-16T10:15:47.034Z,69.24
2023-04-16T10:18:16.803Z,69.28
2023-04-16T10:20:46.309Z,69.01
2023-04-16T10:23:16.358Z,68.54
2023-04-16T10:25:57.542Z,67.43
2023-04-16T10:28:27.737Z,65.77
2023-04-16T10:30:59.034Z,65.57
2023-04-16T10:33:33.281Z,65.02
2023-04-16T10:36:23.352Z,65.17
2023-04-16T10:38:54.121Z,65.12
2023-04-16T10:41:23.500Z,65.25
2023-04-16T10:43:52.908Z,64.44
2023-04-16T10:46:23.609Z,63.89
2023-04-16T10:49:00.208Z,63.76
2023-04-16T10:51:28.931Z,63.65
2023-04-16T10:54:10.381Z,62.42
2023-04-16T10:56:38.862Z,61.54
2023-04-16T10:59:11.963Z,60.33
2023-04-16T11:01:46.125Z,60.90
2023-04-16T11:04:20.828Z,59.44
2023-04-16T11:07:04.572Z,59.24
2023-04-16T11:09:54.440Z,58.54
2023-04-16T11:12:44.987Z,59.09
2023-04-16T11:15:19.624Z,59.05
2023-04-16T11:17:52.061Z,58.16
2023-04-16T11:20:29.099Z,57.18
2023-04-16T11:22:58.275Z,57.33
2023-04-16T11:25:34.469Z,57.25
2023-04-16T11:28:03.939Z,56.80
2023-04-16T11:30:37.885Z,56.17
2023-04-16T11:33:09.397Z,55.93
2023-04-16T11:35:41.771Z,55.81
2023-04-16T11:38:10.229Z,55.95
2023-04-16T11:40:42.559Z,56.23
2023-04-16T11:43:15.829Z,55.82
2023-04-16T11:45:57.328Z,55.90
2023-04-16T11:48:25.873Z,55.15
2023-04-16T11:50:58.180Z,53.90
2023-04-16T11:53:27.375Z,54.65
2023-04-16T11:55:55.708Z,55.38
2023-04-16T11:58:24.031Z,55.21
2023-04-16T12:00:58.257Z,54.61
2023-04-16T12:03:47.209Z,53.56
2023-04-16T12:06:15.757Z,53.88
2023-04-16T12:08:44.888Z,53.47
2023-04-16T12:11:13.256Z,52.92
2023-04-16T12:13:41.645Z,53.10
2023-04-16T12:16:19.835Z,53.96
2023-04-16T12:19:03.079Z,53.31
2023-04-16T12:22:00.936Z,53.15
2023-04-16T12:24:32.597Z,53.24
2023-04-16T12:27:03.248Z,53.36
2023-04-16T12:29:32.340Z,53.38
2023-04-16T12:32:02.035Z,53.30
2023-04-16T12:34:48.893Z,52.87
2023-04-16T12:37:18.150Z,52.62
2023-04-16T12:39:48.070Z,52.68
2023-04-16T12:42:16.865Z,52.68
2023-04-16T12:44:47.054Z,51.61
2023-04-16T12:47:15.963Z,50.71
2023-04-16T12:49:45.186Z,50.95
2023-04-16T12:52:13.656Z,50.97
2023-04-16T12:54:42.237Z,50.23
2023-04-16T12:57:12.252Z,50.43
2023-04-16T12:59:40.525Z,50.82
2023-04-16T13:02:09.166Z,50.35
2023-04-16T13:04:38.028Z,49.62
2023-04-16T13:07:06.988Z,49.57
2023-04-16T13:09:37.763Z,49.63
2023-04-16T13:12:08.274Z,49.92
2023-04-16T13:14:37.380Z,49.62
2023-04-16T13:17:06.116Z,48.99
2023-04-16T13:19:34.928Z,49.21
2023-04-16T13:22:04.140Z,49.01
2023-04-16T13:24:33.119Z,48.37
2023-04-16T13:27:01.991Z,48.84
2023-04-16T13:29:31.112Z,49.11
2023-04-16T13:31:59.717Z,49.21
2023-04-16T13:34:28.979Z,48.42
2023-04-16T13:36:57.453Z,48.33
2023-04-16T13:39:26.070Z,48.27
2023-04-16T13:41:54.673Z,47.85
2023-04-16T13:44:23.826Z,47.19
2023-04-16T13:46:53.897Z,46.90
2023-04-16T13:49:23.033Z,46.65
2023-04-16T13:51:51.525Z,46.77
2023-04-16T13:54:19.902Z,46.37
2023-04-16T13:56:51.511Z,46.65
2023-04-16T13:59:20.453Z,46.49
2023-04-16T14:01:48.957Z,46.27
2023-04-16T14:04:17.597Z,46.26
2023-04-16T14:06:46.609Z,45.85
2023-04-16T14:09:15.271Z,46.06
2023-04-16T14:11:43.806Z,46.23
2023-04-16T14:14:12.665Z,46.12
2023-04-16T14:16:41.415Z,46.27
2023-04-16T14:19:11.062Z,46.63
2023-04-16T14:21:39.846Z,46.38
2023-04-16T14:24:09.358Z,45.78
2023-04-16T14:26:37.815Z,46.16
2023-04-16T14:29:07.120Z,46.43
2023-04-16T14:31:35.837Z,47.00
2023-04-16T14:34:04.403Z,47.30
2023-04-16T14:36:33.291Z,47.81
2023-04-16T14:39:02.394Z,48.20
2023-04-16T14:41:31.167Z,48.11
2023-04-16T14:44:00.082Z,48.02
2023-04-16T14:46:28.534Z,47.71
2023-04-16T14:48:57.032Z,47.25
2023-04-16T14:51:27.579Z,47.41
2023-04-16T14:53:56.871Z,47.29
2023-04-16T14:56:26.377Z,46.87
2023-04-16T14:58:55.272Z,46.95
2023-04-16T15:01:24.656Z,47.05
2023-04-16T15:03:57.118Z,46.70
2023-04-16T15:06:26.548Z,46.13
2023-04-16T15:08:54.887Z,45.95
2023-04-16T15:11:23.582Z,45.95
2023-04-16T15:13:52.609Z,45.81
2023-04-16T15:16:21.320Z,46.04
2023-04-16T15:18:50.709Z,46.37
2023-04-16T15:21:19.289Z,46.48
2023-04-16T15:23:47.753Z,46.24
2023-04-16T15:26:16.561Z,45.92
2023-04-16T15:28:45.341Z,45.68
2023-04-16T15:31:13.816Z,45.61
2023-04-16T15:33:42.160Z,45.76
2023-04-16T15:36:11.703Z,46.20
2023-04-16T15:38:40.152Z,46.17
2023-04-16T15:41:10.704Z,46.04
2023-04-16T15:43:40.159Z,45.96
2023-04-16T15:46:09.285Z,45.81
2023-04-16T15:48:37.992Z,45.70
2023-04-16T15:51:06.815Z,45.34
2023-04-16T15:53:35.363Z,44.83
2023-04-16T15:56:03.954Z,44.43
2023-04-16T15:58:32.471Z,44.64
2023-04-16T16:01:01.033Z,44.76
2023-04-16T16:03:32.445Z,45.03
2023-04-16T16:06:06.929Z,45.11
2023-04-16T16:08:42.687Z,44.61
2023-04-16T16:11:15.592Z,44.63
2023-04-16T16:13:45.772Z,44.81
2023-04-16T16:16:15.203Z,44.98
2023-04-16T16:18:48.360Z,46.19
2023-04-16T16:21:17.250Z,48.02
2023-04-16T16:23:47.054Z,49.30
2023-04-16T16:26:15.840Z,49.91
2023-04-16T16:28:45.157Z,50.78
2023-04-16T16:31:13.878Z,51.43
2023-04-16T16:33:43.231Z,52.13
2023-04-16T16:36:12.766Z,53.02
2023-04-16T16:38:42.756Z,53.77
2023-04-16T16:41:11.750Z,54.22
2023-04-16T16:43:40.651Z,54.85
2023-04-16T16:46:10.235Z,55.30
2023-04-16T16:48:39.028Z,55.92
2023-04-16T16:51:10.852Z,56.14
2023-04-16T16:53:39.808Z,56.83
2023-04-16T16:56:08.986Z,57.45
2023-04-16T16:58:38.188Z,58.17
2023-04-16T17:05:01.429Z,58.90
2023-04-16T17:07:55.548Z,59.31
2023-04-16T17:10:39.939Z,59.50
2023-04-16T17:13:09.369Z,59.64
2023-04-16T17:15:39.022Z,59.97
2023-04-16T17:18:08.497Z,60.20
2023-04-16T17:20:37.784Z,60.37
2023-04-16T17:23:07.591Z,61.06
2023-04-16T17:25:37.114Z,61.07
2023-04-16T17:28:08.447Z,61.44
2023-04-16T17:30:39.269Z,61.59
2023-04-16T17:33:08.923Z,61.81
2023-04-16T17:35:42.092Z,62.02
2023-04-16T17:38:17.017Z,61.90
2023-04-16T17:40:46.408Z,62.10
2023-04-16T17:43:15.702Z,62.78
2023-04-16T17:45:45.160Z,63.07
2023-04-16T17:48:16.042Z,63.17
2023-04-16T17:50:46.275Z,63.00
2023-04-16T17:53:15.959Z,63.32
2023-04-16T17:55:56.707Z,63.66
2023-04-16T17:58:28.173Z,64.29
2023-04-16T18:00:58.784Z,65.06
2023-04-16T18:03:33.929Z,65.58
2023-04-16T18:06:05.425Z,66.01
2023-04-16T18:08:39.038Z,66.61
2023-04-16T18:11:10.173Z,67.37
2023-04-16T18:13:41.834Z,67.88
2023-04-16T18:16:17.214Z,68.39
2023-04-16T18:18:46.490Z,69.43
2023-04-16T18:21:15.622Z,70.03
2023-04-16T18:23:48.908Z,70.28
2023-04-16T18:26:22.397Z,70.59
2023-04-16T18:28:53.421Z,70.46
2023-04-16T18:31:23.262Z,70.75
2023-04-16T18:33:58.027Z,70.89
2023-04-16T18:36:27.634Z,71.22
2023-04-16T18:39:01.717Z,71.79
2023-04-16T18:41:31.550Z,72.27
2023-04-16T18:44:01.053Z,72.58
2023-04-16T18:46:30.685Z,72.82
2023-04-16T18:49:00.671Z,72.98
2023-04-16T18:51:30.714Z,73.30
2023-04-16T18:53:59.681Z,73.10
2023-04-16T18:56:31.436Z,73.48
2023-04-16T18:59:00.637Z,73.82
2023-04-16T19:01:29.992Z,74.11
2023-04-16T19:03:59.053Z,74.20
2023-04-16T19:06:29.498Z,74.40
2023-04-16T19:08:58.379Z,74.54
2023-04-16T19:11:27.262Z,74.63
2023-04-16T19:13:57.788Z,74.90
2023-04-16T19:16:29.673Z,75.07
2023-04-16T19:18:58.612Z,75.41
2023-04-16T19:21:28.227Z,75.55
2023-04-16T19:23:56.897Z,75.57
2023-04-16T19:26:27.381Z,75.64
2023-04-16T19:28:56.885Z,75.70
2023-04-16T19:31:26.687Z,75.47
2023-04-16T19:33:58.539Z,75.54
2023-04-16T19:36:27.950Z,75.48
2023-04-16T19:38:56.793Z,75.59
2023-04-16T19:41:26.375Z,75.66
2023-04-16T19:43:55.655Z,75.80
2023-04-16T19:46:26.445Z,75.68
2023-04-16T19:48:56.987Z,75.92
2023-04-16T19:51:27.394Z,76.10
2023-04-16T19:53:56.638Z,76.31
2023-04-16T19:56:25.928Z,76.47
2023-04-16T19:58:56.240Z,76.70
2023-04-16T20:01:25.371Z,76.89
2023-04-16T20:03:55.085Z,76.72
2023-04-16T20:06:24.485Z,76.73
2023-04-16T20:08:53.450Z,76.74
2023-04-16T20:11:22.762Z,76.96
2023-04-16T20:13:51.365Z,77.00
2023-04-16T20:16:24.190Z,77.05
2023-04-16T20:18:54.595Z,76.83
2023-04-16T20:21:24.274Z,76.77
2023-04-16T20:23:53.366Z,77.18
2023-04-16T20:26:24.509Z,77.49
2023-04-16T20:28:53.750Z,77.84
2023-04-16T20:31:23.048Z,77.47
2023-04-16T20:33:51.995Z,77.57
2023-04-16T20:36:21.889Z,77.81
2023-04-16T20:38:53.819Z,77.75
2023-04-16T20:41:25.516Z,77.79
2023-04-16T20:43:54.899Z,77.32
2023-04-16T20:46:30.622Z,77.11
2023-04-16T20:49:04.721Z,77.04
2023-04-16T20:51:34.084Z,77.09
2023-04-16T20:54:04.759Z,77.17
2023-04-16T20:56:34.330Z,77.26
2023-04-16T20:59:14.066Z,77.55
2023-04-16T21:01:44.607Z,77.49
2023-04-16T21:04:18.741Z,77.44
2023-04-16T21:06:51.602Z,77.73
2023-04-16T21:09:22.170Z,78.12
2023-04-16T21:11:55.253Z,78.51
2023-04-16T21:14:25.139Z,78.61
2023-04-16T21:16:54.962Z,78.72
2023-04-16T21:19:23.617Z,78.91
2023-04-16T21:21:52.437Z,79.14
2023-04-16T21:24:21.420Z,79.31
2023-04-16T21:26:49.992Z,79.45
2023-04-16T21:29:21.139Z,79.48
2023-04-16T21:31:49.683Z,79.51
2023-04-16T21:34:21.069Z,79.65
2023-04-16T21:36:52.328Z,79.77
2023-04-16T21:39:31.342Z,79.80
2023-04-16T21:42:00.051Z,79.89
2023-04-16T21:44:28.733Z,80.07
2023-04-16T21:46:57.414Z,80.17
2023-04-16T21:49:28.648Z,80.13
2023-04-16T21:51:59.442Z,80.11
2023-04-16T21:54:28.268Z,80.30
2023-04-16T21:56:58.495Z,80.32
2023-04-16T21:59:27.089Z,80.10
2023-04-16T22:01:56.167Z,80.07
2023-04-16T22:04:26.573Z,80.15
2023-04-16T22:06:57.999Z,80.18
2023-04-16T22:09:26.536Z,80.12
2023-04-16T22:11:57.977Z,80.18
2023-04-16T22:14:26.795Z,80.33
2023-04-16T22:16:56.836Z,80.54
2023-04-16T22:19:28.379Z,80.45
2023-04-16T22:21:57.442Z,80.48
2023-04-16T22:24:28.299Z,80.19
2023-04-16T22:26:57.396Z,80.16
2023-04-16T22:29:26.674Z,80.21
2023-04-16T22:31:55.698Z,80.19
2023-04-16T22:34:24.661Z,80.59
2023-04-16T22:36:56.564Z,80.57
2023-04-16T22:39:25.754Z,80.44
2023-04-16T22:41:54.587Z,80.25
2023-04-16T22:44:23.405Z,80.31
2023-04-16T22:47:06.110Z,80.43
2023-04-16T22:49:35.206Z,80.62
2023-04-16T22:52:03.952Z,80.89
2023-04-16T22:54:37.795Z,81.11
2023-04-16T22:57:06.382Z,81.29
2023-04-16T22:59:34.798Z,81.41
2023-04-16T23:02:03.516Z,81.41
2023-04-16T23:04:33.048Z,81.41
2023-04-16T23:07:10.956Z,81.50
2023-04-16T23:09:44.579Z,81.50
2023-04-16T23:12:16.018Z,81.90
2023-04-16T23:14:46.213Z,82.09
2023-04-16T23:17:20.278Z,82.17
2023-04-16T23:19:51.615Z,81.97
2023-04-16T23:22:20.473Z,82.10
2023-04-16T23:24:49.275Z,82.20
2023-04-16T23:27:32.700Z,81.89
2023-04-16T23:30:01.564Z,81.66
2023-04-16T23:32:30.602Z,81.71
2023-04-16T23:35:02.361Z,81.72
2023-04-16T23:37:36.376Z,81.73
2023-04-16T23:40:08.360Z,81.83
2023-04-16T23:42:37.110Z,82.06
2023-04-16T23:45:12.460Z,82.24
2023-04-16T23:47:44.705Z,82.00
2023-04-16T23:50:16.064Z,82.04
2023-04-16T23:52:44.877Z,82.20
2023-04-16T23:55:18.738Z,81.98
2023-04-16T23:57:47.857Z,81.84
